Terminal Aerodrome Forecast
Issued by NWS Charleston, WV

Home | Current Version | Previous Version | Text Only | Print | Product List | Glossary On
Versions: 1 2 3 4 5 6 7 8 9 10 11 12 13 14 15 16 17 18 19 20 21 22 23 24 25 26 27 28 29 30 31 32
965
FTUS41 KRLX 302108 AAA
TAFCRW
TAF AMD
KCRW 302108Z 3021/3118 25004KT P6SM VCTS BKN035CB
      TEMPO 3021/3022 BKN025CB
     FM302200 VRB02KT P6SM SCT040
     FM310800 VRB02KT 3SM BR SCT040
     FM310900 VRB02KT 1SM BR BKN001
     FM311000 VRB02KT 1/2SM FG BKN001
     FM311300 VRB02KT 3SM BR BKN015
     FM311400 VRB03KT P6SM BKN040=

USA.gov is the U.S. government's official web portal to all federal, state and local government web resources and services.